Gillette, WY

10:20 AM MDT on May 27, 2015 (GMT -0600)
Johnson County | | Change Station
CLOSE
Current Station
Airport
Location: Buffalo,
Elevation: 4967 ft
Nearby Weather Stations
Active Advisory: Areal Flood Warning Active Notice: Local Storm Report

Elev 4967 ft 44.38 °N, 106.72 °W | Updated 27 minutes ago

Mostly Cloudy
Mostly Cloudy
57 °F
Feels Like 57 °F
N
8
Wind Variable Wind from North

Today
High -- | Low -- °F
--% Chance of Precip.
Yesterday
High -- | Low -- °F
Precip. -- in
5:24 AM 8:36 PM
Waxing Gibbous, 68% visible
Pressure 29.93 in
Visibility 10.0 miles
Clouds Overcast 7000 ft
Dew Point 47 °F
Humidity 69%
Rainfall 0.02 in
Snow Depth Not available.
UV 2 out of 12
Pollen 6.10 out of 12
Air Quality Not available.
Flu Activity Sporadic
METAR KBYG 271553Z AUTO 35007KT 10SM OVC070 14/08 A3002 RMK AO2 SLP133 T01390083 $

More Conditions Fewer Conditions

Pressure 29.93 in
Visibility 10.0 miles
Clouds Overcast 7000 ft
Dew Point 47 °F
Humidity 69%
Rainfall 0.02 in
Snow Depth Not available.
UV 2 out of 12
Pollen 6.10 out of 12
Air Quality Not available.
Flu Activity Sporadic
METAR KBYG 271553Z AUTO 35007KT 10SM OVC070 14/08 A3002 RMK AO2 SLP133 T01390083 $

More Conditions Fewer Conditions

10-Day Weather Forecast

Almanac

Astronomy

May. 27, 2015 Rise Set
Actual Time
Civil Twilight
Nautical Twilight
Astronomical Twilight
Moon
Length of Visible Light
Length of Day
Tomorrow will be .
, % of the Moon is Illuminated

Today's Extremes

State Highs State Lows

Community

WunderPhotos

Upload Photos

1,824,711 photos uploaded!

WunderBlogs® & News

Nearby

Air Quality

  Air Quality AQ Index Pollutant
Not available.

Snow Depth

Station Depth Elevation

Earthquake Activity

City Distance Mag. Time & Date
Minimum magnitude displayed is 2.5.

Coastal Water Temperatures

Place Temperature

Stations

Nearby Weather Stations

Station Location Temp. Windchill Dew Point Humidity Wind Precip. Elev Updated Type
                   
Areal Flood Warning
Statement as of 5:34 AM MDT on May 27, 2015

... A Flood Warning remains in effect until 300 PM MDT Thursday for
northwestern Campbell County...

Flood waters are moving down the Powder River... after a record crest
over 15 feet at Sussex in eastern Johnson County early Monday. Water
levels continue to rise between Arvada Wyoming and Moorhead
Montana... and this stretch of the river is expected to crest today.

Roads... pastures... and farmland along the Powder River will be
flooded in extreme northwest Campbell County as the water flows
downstream.

Precautionary/preparedness actions...

Do not drive your vehicle into areas where the water covers the
roadway. The water depth may be too great to allow your car to cross
safely. Move to higher ground.


Lat... Lon 4496 10596 4500 10594 4499 10592 4500 10589
      4494 10592 4490 10602 4494 10603


Johnson